Time;durP1;ratioP1;P1;durP2;ratioP2;P2;SDS_P1;SDS_P2;PMS_P1;PMS_P2;Temp;Humidity;BMP_temperature;BMP_pressure;BME280_temperature;BME280_humidity;BME280_pressure;Samples;Min_cycle;Max_cycle;Signal;HPM_P1;HPM_P2
2023/03/27 00:02:13;;;;;;;0.32;0.00;;;7.80;81.80;;;;;;4974933;28;94660;-71
2023/03/27 00:04:40;;;;;;;0.15;0.00;;;7.70;82.30;;;;;;4971913;28;92462;-72
2023/03/27 00:07:06;;;;;;;0.52;0.00;;;7.80;82.30;;;;;;4973491;28;92280;-69
2023/03/27 00:09:32;;;;;;;0.63;0.00;;;7.70;82.10;;;;;;4966275;28;93401;-68
2023/03/27 00:11:59;;;;;;;0.13;0.00;;;7.70;82.50;;;;;;4984120;28;92827;-69
2023/03/27 00:14:25;;;;;;;0.17;0.00;;;7.70;83.00;;;;;;4972413;28;93534;-68
2023/03/27 00:16:51;;;;;;;1.00;0.00;;;7.70;83.00;;;;;;4982940;28;91353;-71
2023/03/27 00:19:17;;;;;;;0.10;0.00;;;7.60;83.30;;;;;;4973098;28;92502;-71
2023/03/27 00:21:43;;;;;;;7.72;0.10;;;7.60;84.10;;;;;;4974411;28;93329;-71
2023/03/27 00:24:10;;;;;;;1.60;0.00;;;7.60;83.10;;;;;;4975003;28;93414;-69
2023/03/27 00:26:39;;;;;;;0.80;0.00;;;7.60;83.20;;;;;;4975718;28;92336;-70
2023/03/27 00:29:05;;;;;;;0.47;0.00;;;7.50;82.90;;;;;;4972586;28;93801;-68
2023/03/27 00:31:31;;;;;;;0.57;0.00;;;7.50;84.00;;;;;;4992580;28;92862;-69
2023/03/27 00:33:57;;;;;;;0.32;0.00;;;7.50;83.00;;;;;;4974766;28;92396;-68
2023/03/27 00:36:23;;;;;;;0.40;0.00;;;7.50;83.20;;;;;;4972786;28;92427;-69
2023/03/27 00:38:51;;;;;;;0.90;0.00;;;7.50;83.00;;;;;;4974599;28;92847;-67
2023/03/27 00:41:21;;;;;;;1.48;0.00;;;7.40;83.10;;;;;;4982783;28;92102;-68
2023/03/27 00:43:48;;;;;;;0.10;0.00;;;7.40;84.00;;;;;;4983315;28;92621;-67
2023/03/27 00:46:20;;;;;;;0.60;0.00;;;7.30;83.90;;;;;;4964785;28;92652;-68
2023/03/27 00:48:48;;;;;;;0.90;0.00;;;7.40;84.20;;;;;;4975906;28;93554;-69
2023/03/27 00:51:17;;;;;;;0.25;0.00;;;7.40;84.60;;;;;;4977655;28;93108;-67
2023/03/27 00:53:44;;;;;;;0.68;0.00;;;7.40;84.70;;;;;;4984790;28;92473;-68
2023/03/27 00:56:11;;;;;;;0.73;0.00;;;7.50;84.80;;;;;;4978290;28;92491;-69
2023/03/27 00:58:43;;;;;;;1.35;0.00;;;7.50;84.40;;;;;;4977556;28;93793;-70
2023/03/27 01:01:12;;;;;;;0.40;0.00;;;7.60;84.70;;;;;;4980993;28;92856;-69
2023/03/27 01:03:40;;;;;;;0.40;0.00;;;7.70;85.20;;;;;;4979128;28;92500;-68
2023/03/27 01:06:07;;;;;;;1.15;0.00;;;7.60;84.50;;;;;;4978521;28;91592;-67
2023/03/27 01:08:36;;;;;;;0.63;0.00;;;7.70;85.20;;;;;;4975333;28;93781;-70
2023/03/27 01:11:14;;;;;;;1.13;0.00;;;7.70;84.50;;;;;;4975703;28;92780;-70
2023/03/27 01:13:58;;;;;;;0.45;0.00;;;7.60;85.60;;;;;;4980238;28;93478;-69
2023/03/27 01:16:51;;;;;;;0.70;0.00;;;7.60;85.20;;;;;;4970453;28;92432;-73
2023/03/27 01:19:37;;;;;;;0.57;0.00;;;7.60;85.90;;;;;;4976864;28;93098;-72
2023/03/27 01:22:17;;;;;;;0.17;0.10;;;7.60;86.60;;;;;;4974847;28;92315;-69
2023/03/27 01:24:49;;;;;;;0.63;0.00;;;7.70;86.60;;;;;;4986758;28;92481;-70
2023/03/27 01:27:21;;;;;;;2.22;0.10;;;7.70;86.30;;;;;;4980549;28;92454;-68
2023/03/27 01:30:01;;;;;;;0.55;0.00;;;7.60;85.70;;;;;;4977374;28;93505;-68
2023/03/27 01:32:52;;;;;;;0.25;0.00;;;7.50;85.80;;;;;;4975934;28;92395;-68
2023/03/27 01:35:26;;;;;;;1.15;0.00;;;7.50;86.70;;;;;;4974173;28;92444;-69
2023/03/27 01:38:18;;;;;;;2.80;0.00;;;7.60;86.40;;;;;;4978622;28;92298;-71
2023/03/27 01:40:57;;;;;;;1.13;0.00;;;7.60;86.60;;;;;;4976005;28;94008;-69
2023/03/27 01:43:29;;;;;;;1.02;0.00;;;7.60;85.90;;;;;;4986016;28;93729;-68
2023/03/27 01:46:10;;;;;;;1.08;0.00;;;7.70;87.00;;;;;;4979936;28;92375;-69
2023/03/27 01:48:44;;;;;;;0.30;0.00;;;7.80;86.50;;;;;;4963625;28;92382;-71
2023/03/27 01:51:27;;;;;;;0.40;0.00;;;7.80;85.80;;;;;;4980554;28;92752;-68
2023/03/27 01:54:01;;;;;;;0.55;0.00;;;7.90;85.50;;;;;;4974340;28;92537;-68
2023/03/27 01:56:36;;;;;;;0.25;0.00;;;7.90;85.60;;;;;;4996777;28;92565;-69
2023/03/27 01:59:17;;;;;;;0.30;0.00;;;8.00;84.40;;;;;;4998068;28;91728;-69
2023/03/27 02:01:49;;;;;;;0.68;0.00;;;7.90;85.70;;;;;;4977118;28;93249;-71
2023/03/27 02:04:23;;;;;;;0.90;0.00;;;7.80;85.70;;;;;;4996806;28;92800;-70
2023/03/27 02:07:00;;;;;;;0.20;0.00;;;7.90;86.10;;;;;;4997127;28;93041;-70
2023/03/27 02:09:33;;;;;;;0.30;0.00;;;7.90;86.00;;;;;;4981031;28;92660;-71
2023/03/27 02:12:23;;;;;;;1.55;0.00;;;7.80;86.70;;;;;;4984606;28;93692;-69
2023/03/27 02:14:55;;;;;;;0.30;0.00;;;7.80;85.10;;;;;;4981615;28;92944;-68
2023/03/27 02:17:26;;;;;;;0.00;0.00;;;7.70;85.00;;;;;;4984672;28;92421;-71
2023/03/27 02:20:22;;;;;;;0.20;0.00;;;7.80;85.00;;;;;;4979434;28;92512;-67
2023/03/27 02:22:49;;;;;;;0.05;0.00;;;7.80;84.50;;;;;;4996041;28;93227;-68
2023/03/27 02:25:31;;;;;;;0.10;0.00;;;7.80;83.90;;;;;;4981856;28;92264;-68
2023/03/27 02:28:02;;;;;;;0.15;0.00;;;7.90;83.90;;;;;;4979627;28;92552;-69
2023/03/27 02:30:38;;;;;;;0.17;0.00;;;7.90;83.40;;;;;;4971835;28;92704;-72
2023/03/27 02:33:16;;;;;;;0.50;0.00;;;7.80;85.30;;;;;;4973806;28;94209;-70
2023/03/27 02:36:02;;;;;;;0.00;0.00;;;7.80;83.10;;;;;;4969871;28;93751;-67
2023/03/27 02:38:48;;;;;;;0.00;0.00;;;7.80;83.50;;;;;;4969433;28;93550;-68
2023/03/27 02:41:25;;;;;;;0.63;0.00;;;7.80;83.70;;;;;;4976226;28;92794;-70
2023/03/27 02:43:50;;;;;;;0.00;0.00;;;7.80;83.90;;;;;;4973490;28;93206;-69
2023/03/27 02:46:41;;;;;;;0.43;0.00;;;7.80;83.60;;;;;;4976004;28;93409;-69
2023/03/27 02:49:18;;;;;;;0.20;0.00;;;7.70;83.10;;;;;;4977359;28;92795;-72
2023/03/27 02:51:53;;;;;;;0.30;0.00;;;7.80;83.50;;;;;;4984743;28;91638;-72
2023/03/27 02:54:24;;;;;;;0.60;0.00;;;7.80;83.70;;;;;;4995980;28;93126;-70
2023/03/27 02:56:56;;;;;;;0.43;0.00;;;7.80;83.70;;;;;;4995719;28;93157;-68
2023/03/27 02:59:26;;;;;;;0.50;0.00;;;7.80;84.00;;;;;;4983880;28;93523;-68
2023/03/27 03:01:53;;;;;;;0.20;0.00;;;7.80;83.50;;;;;;4982803;28;92618;-67
2023/03/27 03:04:34;;;;;;;0.17;0.00;;;7.80;83.00;;;;;;4966219;28;93139;-67
2023/03/27 03:07:05;;;;;;;0.45;0.00;;;7.80;83.50;;;;;;4973383;28;93102;-67
2023/03/27 03:09:31;;;;;;;0.40;0.00;;;7.80;83.50;;;;;;4973235;28;92388;-71
2023/03/27 03:11:56;;;;;;;1.00;0.00;;;7.80;83.30;;;;;;4976196;28;92342;-71
2023/03/27 03:14:28;;;;;;;0.57;0.00;;;7.90;83.30;;;;;;4975449;28;93530;-68
2023/03/27 03:16:53;;;;;;;0.30;0.00;;;7.90;83.40;;;;;;4977870;28;93062;-68
2023/03/27 03:19:20;;;;;;;0.10;0.00;;;7.90;83.80;;;;;;4971774;28;92711;-68
2023/03/27 03:21:48;;;;;;;0.20;0.00;;;7.90;83.10;;;;;;4986460;28;92530;-68
2023/03/27 03:24:14;;;;;;;0.30;0.00;;;7.90;83.60;;;;;;4987348;28;94910;-67
2023/03/27 03:26:39;;;;;;;1.42;0.00;;;7.90;83.30;;;;;;4973887;28;93273;-68
2023/03/27 03:29:05;;;;;;;0.50;0.00;;;8.00;82.50;;;;;;4979958;28;92423;-68
2023/03/27 03:31:42;;;;;;;0.40;0.00;;;8.00;83.00;;;;;;4993522;28;92333;-69
2023/03/27 03:34:10;;;;;;;0.45;0.00;;;8.00;82.80;;;;;;4959982;28;93263;-69
2023/03/27 03:36:36;;;;;;;1.17;0.05;;;8.00;82.70;;;;;;4962768;28;92871;-71
2023/03/27 03:39:02;;;;;;;0.35;0.00;;;8.00;82.60;;;;;;4972456;28;92989;-69
2023/03/27 03:41:28;;;;;;;0.10;0.00;;;8.00;82.50;;;;;;4965784;28;91597;-68
2023/03/27 03:43:54;;;;;;;0.00;0.00;;;8.00;82.40;;;;;;4986285;28;93327;-68
2023/03/27 03:46:20;;;;;;;0.05;0.00;;;8.00;81.70;;;;;;4976714;28;92471;-67
2023/03/27 03:48:45;;;;;;;0.65;0.00;;;8.10;81.90;;;;;;4973925;28;93520;-67
2023/03/27 03:51:11;;;;;;;0.25;0.00;;;8.00;82.80;;;;;;4970038;28;92149;-67
2023/03/27 03:53:36;;;;;;;1.50;0.00;;;8.00;83.10;;;;;;4970986;28;93770;-68
2023/03/27 03:56:02;;;;;;;0.73;0.00;;;8.00;83.20;;;;;;4962243;28;92797;-69
2023/03/27 03:58:28;;;;;;;0.30;0.00;;;8.00;83.20;;;;;;4953270;28;94562;-68
2023/03/27 04:00:53;;;;;;;0.20;0.00;;;8.00;83.70;;;;;;4963339;28;92606;-69
2023/03/27 04:03:19;;;;;;;0.10;0.00;;;7.90;83.80;;;;;;4956319;28;93657;-72
2023/03/27 04:05:45;;;;;;;0.50;0.00;;;7.90;84.40;;;;;;4963394;28;92605;-70
2023/03/27 04:08:11;;;;;;;0.80;0.00;;;7.90;85.10;;;;;;4971136;28;93851;-68
2023/03/27 04:10:38;;;;;;;0.40;0.00;;;7.90;84.50;;;;;;4969714;28;92546;-69
2023/03/27 04:13:05;;;;;;;0.52;0.00;;;7.90;85.00;;;;;;4985678;28;93785;-70
2023/03/27 04:15:31;;;;;;;0.03;0.00;;;7.90;84.80;;;;;;4993177;28;94447;-69
2023/03/27 04:17:57;;;;;;;0.20;0.00;;;7.90;85.80;;;;;;4978442;28;92063;-69
2023/03/27 04:20:26;;;;;;;1.95;0.00;;;7.90;85.30;;;;;;4976115;28;93434;-73
2023/03/27 04:22:53;;;;;;;0.30;0.00;;;7.90;85.90;;;;;;4960953;28;92608;-71
2023/03/27 04:25:21;;;;;;;0.52;0.00;;;7.90;86.50;;;;;;4978309;28;92368;-71
2023/03/27 04:27:50;;;;;;;0.65;0.00;;;7.90;87.20;;;;;;4989862;28;92527;-71
2023/03/27 04:30:21;;;;;;;1.10;0.32;;;7.90;87.80;;;;;;4978498;28;91598;-70
2023/03/27 04:32:48;;;;;;;;;;;7.70;89.30;;;;;;4977508;28;92613;-71
2023/03/27 04:35:14;;;;;;;0.45;0.00;;;7.70;90.40;;;;;;4978218;28;92567;-71
2023/03/27 04:37:44;;;;;;;0.95;0.00;;;7.70;89.30;;;;;;4973820;28;93305;-69
2023/03/27 04:40:12;;;;;;;1.00;0.00;;;7.60;89.10;;;;;;4968554;28;92347;-70
2023/03/27 04:42:42;;;;;;;0.30;0.00;;;7.60;89.40;;;;;;4972702;28;93167;-72
2023/03/27 04:45:16;;;;;;;0.40;0.00;;;7.50;89.70;;;;;;4967192;28;93390;-72
2023/03/27 04:47:42;;;;;;;0.52;0.00;;;7.50;90.00;;;;;;4955688;28;92925;-71
2023/03/27 04:50:09;;;;;;;1.17;0.00;;;7.50;90.10;;;;;;4973533;28;92416;-70
2023/03/27 04:52:35;;;;;;;0.40;0.00;;;7.50;90.40;;;;;;4969596;28;93118;-69
2023/03/27 04:55:03;;;;;;;0.63;0.00;;;7.50;90.80;;;;;;4977044;28;92798;-72
2023/03/27 04:57:30;;;;;;;0.20;0.00;;;7.50;90.90;;;;;;4967705;28;92639;-71
2023/03/27 05:00:00;;;;;;;0.30;0.00;;;7.40;91.20;;;;;;4960583;28;92835;-71
2023/03/27 05:02:26;;;;;;;1.02;0.00;;;7.40;91.30;;;;;;4963098;28;95585;-69
2023/03/27 05:04:57;;;;;;;2.15;0.00;;;7.40;91.80;;;;;;4958420;28;94243;-71
2023/03/27 05:07:27;;;;;;;0.50;0.10;;;7.40;91.80;;;;;;4960706;28;94879;-70
2023/03/27 05:09:53;;;;;;;1.13;0.20;;;7.40;91.90;;;;;;4983106;28;92488;-71
2023/03/27 05:12:19;;;;;;;0.77;0.00;;;7.50;92.50;;;;;;4967677;28;92134;-70
2023/03/27 05:14:47;;;;;;;0.95;0.00;;;7.50;92.60;;;;;;4976061;28;92880;-72
2023/03/27 05:17:14;;;;;;;0.73;0.00;;;7.50;92.90;;;;;;4968277;28;93612;-72
2023/03/27 05:19:40;;;;;;;0.30;0.10;;;7.60;93.20;;;;;;4979000;28;91978;-71
2023/03/27 05:22:06;;;;;;;0.32;0.00;;;7.60;92.50;;;;;;4980715;28;92383;-71
2023/03/27 05:24:32;;;;;;;1.75;0.10;;;7.60;92.30;;;;;;4982660;28;92495;-71
2023/03/27 05:26:58;;;;;;;0.70;0.10;;;7.60;92.30;;;;;;4974325;28;95661;-72
2023/03/27 05:29:24;;;;;;;0.80;0.22;;;7.50;91.50;;;;;;4973016;28;92320;-71
2023/03/27 05:31:50;;;;;;;1.77;0.40;;;7.50;91.20;;;;;;4976504;28;93486;-70
2023/03/27 05:34:18;;;;;;;0.82;0.03;;;7.50;91.70;;;;;;4971469;28;92226;-70
2023/03/27 05:36:44;;;;;;;0.75;0.00;;;7.40;91.50;;;;;;4980599;28;92606;-70
2023/03/27 05:39:10;;;;;;;0.98;0.00;;;7.30;92.20;;;;;;4969186;28;92695;-71
2023/03/27 05:41:35;;;;;;;0.52;0.00;;;7.30;92.70;;;;;;4970484;28;93042;-71
2023/03/27 05:44:02;;;;;;;0.50;0.00;;;7.40;91.90;;;;;;4990781;28;93083;-70
2023/03/27 05:46:28;;;;;;;0.32;0.00;;;7.30;91.90;;;;;;4975245;28;92375;-70
2023/03/27 05:48:53;;;;;;;0.40;0.03;;;7.30;91.50;;;;;;4977068;28;93524;-71
2023/03/27 05:51:19;;;;;;;0.38;0.00;;;7.30;90.70;;;;;;4975761;28;93511;-73
2023/03/27 05:53:45;;;;;;;1.15;0.13;;;7.30;90.70;;;;;;4975743;28;92572;-71
2023/03/27 05:56:12;;;;;;;1.00;0.30;;;7.20;90.30;;;;;;4960231;28;93131;-70
2023/03/27 05:58:37;;;;;;;0.50;0.10;;;7.30;90.00;;;;;;4977003;28;92881;-71
2023/03/27 06:01:04;;;;;;;1.00;0.10;;;7.20;89.10;;;;;;4976228;28;92373;-70
2023/03/27 06:03:30;;;;;;;1.33;0.10;;;7.20;89.30;;;;;;4996302;28;92921;-70
2023/03/27 06:05:58;;;;;;;1.05;0.30;;;7.00;86.90;;;;;;4994722;28;92166;-72
2023/03/27 06:08:25;;;;;;;1.42;0.17;;;7.00;87.60;;;;;;4979552;28;91991;-70
2023/03/27 06:10:51;;;;;;;4.03;0.20;;;6.90;86.70;;;;;;4996081;28;93159;-71
2023/03/27 06:13:17;;;;;;;2.03;0.20;;;6.90;88.10;;;;;;4982460;28;93110;-70
2023/03/27 06:15:43;;;;;;;1.85;0.20;;;6.90;87.40;;;;;;4988864;28;93528;-71
2023/03/27 06:18:10;;;;;;;2.33;0.22;;;6.80;86.70;;;;;;4978803;28;92352;-71
2023/03/27 06:20:37;;;;;;;1.15;0.20;;;6.80;87.20;;;;;;4974735;28;92760;-72
2023/03/27 06:23:08;;;;;;;1.20;0.20;;;6.80;87.30;;;;;;4974487;28;92944;-71
2023/03/27 06:25:35;;;;;;;8.52;2.05;;;6.80;87.20;;;;;;4989204;28;92418;-71
2023/03/27 06:28:08;;;;;;;3.20;0.30;;;6.80;87.30;;;;;;4963675;28;92693;-70
2023/03/27 06:30:36;;;;;;;7.22;0.70;;;6.90;86.00;;;;;;4985983;28;93723;-72
2023/03/27 06:33:02;;;;;;;6.60;1.95;;;7.00;85.50;;;;;;4994362;28;94007;-71
2023/03/27 06:35:30;;;;;;;4.75;1.23;;;6.90;85.50;;;;;;4991660;28;92823;-71
2023/03/27 06:38:01;;;;;;;2.55;0.20;;;7.00;85.10;;;;;;4988549;28;92533;-71
2023/03/27 06:40:28;;;;;;;4.50;0.68;;;6.90;83.40;;;;;;4980388;28;93673;-70
2023/03/27 06:43:12;;;;;;;6.05;0.73;;;6.90;83.90;;;;;;4976921;28;93310;-69
2023/03/27 06:45:44;;;;;;;3.97;0.40;;;6.90;84.50;;;;;;4976722;28;92425;-70
2023/03/27 06:48:10;;;;;;;5.85;0.38;;;6.80;82.00;;;;;;4975364;28;93541;-72
2023/03/27 06:50:36;;;;;;;4.40;0.38;;;6.80;82.70;;;;;;4967570;28;93240;-72
2023/03/27 06:53:03;;;;;;;4.97;0.30;;;6.80;82.60;;;;;;4982808;28;93017;-71
2023/03/27 06:55:30;;;;;;;2.50;0.22;;;6.80;82.20;;;;;;4975165;28;93051;-70
2023/03/27 06:57:58;;;;;;;3.30;0.20;;;6.70;81.00;;;;;;4974533;28;91843;-71
2023/03/27 07:00:27;;;;;;;3.53;0.20;;;6.60;79.30;;;;;;4983918;28;93104;-71
2023/03/27 07:02:58;;;;;;;2.72;0.10;;;6.60;79.40;;;;;;4976671;28;93068;-72
2023/03/27 07:05:25;;;;;;;;;;;6.50;79.40;;;;;;4980164;28;93258;-71
2023/03/27 07:07:51;;;;;;;3.70;0.35;;;6.50;80.60;;;;;;4977372;28;92676;-72
2023/03/27 07:10:17;;;;;;;3.72;0.20;;;6.60;80.60;;;;;;4986431;28;92802;-71
2023/03/27 07:12:51;;;;;;;2.72;0.13;;;6.60;81.40;;;;;;4985408;28;93038;-71
2023/03/27 07:15:18;;;;;;;2.85;0.10;;;6.40;77.90;;;;;;4974170;28;92612;-73
2023/03/27 07:17:51;;;;;;;3.95;0.20;;;6.40;78.50;;;;;;4975878;28;92621;-69
2023/03/27 07:20:16;;;;;;;1.50;0.10;;;6.50;78.40;;;;;;4981024;28;93314;-69
2023/03/27 07:22:42;;;;;;;2.40;0.20;;;6.40;78.40;;;;;;4987428;28;92945;-69
2023/03/27 07:25:09;;;;;;;1.70;0.20;;;6.40;79.50;;;;;;4982160;28;92124;-73
2023/03/27 07:27:36;;;;;;;1.55;0.20;;;6.50;80.70;;;;;;4995642;28;92424;-68
2023/03/27 07:30:02;;;;;;;1.85;0.13;;;6.50;78.90;;;;;;4993909;28;93726;-70
2023/03/27 07:32:28;;;;;;;4.65;0.32;;;6.50;79.70;;;;;;4962055;28;93093;-71
2023/03/27 07:34:55;;;;;;;4.68;0.40;;;6.60;79.70;;;;;;4971907;28;94382;-70
2023/03/27 07:37:22;;;;;;;2.67;0.20;;;6.60;79.10;;;;;;4996020;28;92584;-71
2023/03/27 07:39:47;;;;;;;2.80;0.30;;;6.70;79.00;;;;;;4967920;28;93383;-71
2023/03/27 07:42:13;;;;;;;2.25;0.20;;;6.70;79.30;;;;;;4993933;28;92357;-71
2023/03/27 07:44:39;;;;;;;2.33;0.40;;;6.80;79.00;;;;;;4986645;28;92433;-72
2023/03/27 07:47:04;;;;;;;6.68;0.60;;;6.90;79.20;;;;;;4975345;28;92535;-71
2023/03/27 07:49:30;;;;;;;4.57;0.65;;;7.00;79.50;;;;;;4972628;28;93312;-69
2023/03/27 07:51:57;;;;;;;5.32;0.45;;;7.00;79.10;;;;;;4985899;28;94150;-72
2023/03/27 07:54:23;;;;;;;6.95;0.55;;;7.10;79.60;;;;;;4988800;28;93507;-69
2023/03/27 07:56:49;;;;;;;11.07;3.30;;;7.20;79.40;;;;;;4988070;28;92256;-71
2023/03/27 07:59:19;;;;;;;11.52;1.77;;;7.30;79.10;;;;;;4995168;28;93097;-70
2023/03/27 08:01:47;;;;;;;72.55;19.85;;;7.20;79.60;;;;;;4994020;28;93554;-69
2023/03/27 08:04:14;;;;;;;169.40;39.13;;;7.20;78.10;;;;;;4989908;28;92398;-68
2023/03/27 08:06:39;;;;;;;234.18;52.08;;;7.10;77.80;;;;;;4974046;28;92611;-69
2023/03/27 08:09:05;;;;;;;68.53;12.65;;;7.10;77.90;;;;;;4974663;28;93113;-69
2023/03/27 08:11:31;;;;;;;43.13;11.40;;;7.10;77.20;;;;;;4974593;28;92991;-69
2023/03/27 08:13:58;;;;;;;6.70;1.92;;;7.00;77.30;;;;;;4973007;28;92894;-69
2023/03/27 08:16:27;;;;;;;4.43;0.82;;;6.90;78.20;;;;;;4972909;28;92605;-69
2023/03/27 08:18:53;;;;;;;4.05;0.30;;;6.90;78.50;;;;;;4973991;28;94092;-70
2023/03/27 08:21:19;;;;;;;3.85;0.60;;;6.90;78.30;;;;;;4974893;28;93184;-71
2023/03/27 08:23:46;;;;;;;4.13;0.70;;;7.00;79.20;;;;;;4968543;28;92591;-69
2023/03/27 08:26:13;;;;;;;5.70;0.43;;;7.00;79.80;;;;;;4987142;28;92194;-71
2023/03/27 08:28:39;;;;;;;2.83;0.30;;;7.10;80.40;;;;;;4973606;28;94218;-69
2023/03/27 08:31:11;;;;;;;6.57;0.70;;;7.10;80.90;;;;;;4966146;28;92770;-70
2023/03/27 08:33:38;;;;;;;3.97;0.35;;;7.10;80.90;;;;;;4972671;28;92562;-69
2023/03/27 08:36:04;;;;;;;3.20;0.57;;;7.00;81.30;;;;;;4970171;28;91820;-68
2023/03/27 08:38:32;;;;;;;4.15;0.30;;;7.00;81.90;;;;;;4975453;28;94586;-73
2023/03/27 08:40:59;;;;;;;4.13;0.40;;;7.00;78.00;;;;;;4969033;28;93799;-70
2023/03/27 08:43:35;;;;;;;4.78;0.45;;;6.90;76.60;;;;;;4968837;28;94919;-74
2023/03/27 08:46:18;;;;;;;6.85;0.70;;;6.90;77.00;;;;;;4970574;28;92606;-69
2023/03/27 08:48:53;;;;;;;5.70;0.43;;;6.90;76.40;;;;;;4960764;28;94159;-71
2023/03/27 08:51:45;;;;;;;4.35;0.70;;;6.80;75.40;;;;;;4962989;28;92997;-72
2023/03/27 08:54:26;;;;;;;4.28;0.30;;;6.70;76.10;;;;;;4967472;28;92230;-70
2023/03/27 08:56:52;;;;;;;4.10;0.40;;;6.70;75.40;;;;;;4979855;28;92388;-69
2023/03/27 08:59:20;;;;;;;7.75;0.50;;;6.60;73.60;;;;;;4970364;28;92634;-71
2023/03/27 09:02:04;;;;;;;6.07;0.32;;;6.60;75.00;;;;;;4967914;28;91879;-69
2023/03/27 09:05:00;;;;;;;6.72;0.30;;;6.60;74.20;;;;;;4974457;28;92615;-74
2023/03/27 09:07:33;;;;;;;;;;;6.50;73.40;;;;;;4975005;28;92643;-72
2023/03/27 09:10:11;;;;;;;4.25;0.30;;;6.40;74.10;;;;;;4976695;28;94037;-71
2023/03/27 09:13:01;;;;;;;3.67;0.20;;;6.40;74.90;;;;;;4976725;28;94437;-71
2023/03/27 09:15:31;;;;;;;5.38;0.60;;;6.40;75.50;;;;;;4980424;28;92405;-71
2023/03/27 09:18:08;;;;;;;3.47;0.32;;;6.30;76.30;;;;;;4986485;28;92390;-71
2023/03/27 09:20:39;;;;;;;3.85;0.20;;;6.40;76.70;;;;;;4979321;28;92629;-70
2023/03/27 09:23:12;;;;;;;6.90;0.47;;;6.50;75.50;;;;;;4979596;28;92796;-70
2023/03/27 09:25:45;;;;;;;3.00;0.13;;;6.60;74.10;;;;;;4961522;28;93582;-73
2023/03/27 09:28:28;;;;;;;5.82;0.28;;;6.80;73.80;;;;;;4970965;28;92976;-71
2023/03/27 09:30:56;;;;;;;3.10;0.20;;;6.90;72.40;;;;;;4973760;28;92769;-70
2023/03/27 09:33:23;;;;;;;4.97;0.40;;;7.20;71.50;;;;;;4977096;28;92736;-70
2023/03/27 09:35:48;;;;;;;5.22;0.40;;;7.30;71.20;;;;;;4977091;28;93450;-71
2023/03/27 09:38:28;;;;;;;4.90;0.25;;;7.40;70.00;;;;;;4980279;28;92584;-70
2023/03/27 09:41:02;;;;;;;3.28;0.25;;;7.50;70.60;;;;;;4978283;28;92661;-69
2023/03/27 09:43:44;;;;;;;5.13;0.30;;;7.60;69.20;;;;;;4976533;28;92623;-70
2023/03/27 09:46:16;;;;;;;4.70;0.17;;;7.60;67.90;;;;;;4973718;28;92449;-71
2023/03/27 09:48:49;;;;;;;6.03;0.30;;;7.70;67.70;;;;;;4957484;28;93771;-70
2023/03/27 09:51:47;;;;;;;6.97;0.22;;;7.60;69.10;;;;;;4958242;28;92740;-70
2023/03/27 09:54:22;;;;;;;8.13;0.52;;;7.60;66.10;;;;;;4964105;28;92939;-70
2023/03/27 09:57:12;;;;;;;6.38;0.28;;;7.70;67.20;;;;;;4970801;28;92964;-70
2023/03/27 09:59:58;;;;;;;8.63;0.20;;;7.70;66.40;;;;;;4968877;28;93601;-70
2023/03/27 10:02:29;;;;;;;11.18;0.35;;;7.60;66.00;;;;;;4958887;28;94401;-71
2023/03/27 10:04:58;;;;;;;3.75;0.20;;;7.60;65.60;;;;;;4963161;28;93831;-70
2023/03/27 10:07:25;;;;;;;8.60;0.30;;;7.70;66.30;;;;;;4959632;28;93505;-72
2023/03/27 10:10:16;;;;;;;2.55;0.20;;;7.80;66.60;;;;;;4963971;28;92465;-72
2023/03/27 10:12:44;;;;;;;2.83;0.30;;;8.00;65.20;;;;;;4963365;28;93547;-74
2023/03/27 10:15:32;;;;;;;6.65;0.30;;;8.20;67.30;;;;;;4969632;28;92827;-71
2023/03/27 10:18:03;;;;;;;3.58;0.60;;;8.30;64.70;;;;;;4965421;28;94484;-71
2023/03/27 10:20:29;;;;;;;4.60;0.40;;;8.50;65.40;;;;;;4964771;28;91652;-71
2023/03/27 10:23:00;;;;;;;5.22;0.30;;;8.80;64.30;;;;;;4965119;28;93510;-72
2023/03/27 10:25:38;;;;;;;5.88;0.40;;;9.00;62.00;;;;;;4963759;28;92766;-72
2023/03/27 10:28:28;;;;;;;9.60;0.30;;;9.30;61.20;;;;;;4963948;28;93580;-72
2023/03/27 10:31:23;;;;;;;4.50;0.50;;;9.60;61.30;;;;;;4969137;28;92423;-70
2023/03/27 10:33:49;;;;;;;6.03;0.95;;;9.70;58.30;;;;;;4961342;28;92811;-71
2023/03/27 10:36:16;;;;;;;8.00;1.95;;;10.00;60.10;;;;;;4970839;28;93080;-70
2023/03/27 10:38:42;;;;;;;5.38;0.43;;;10.10;58.70;;;;;;4959002;28;92985;-71
2023/03/27 10:41:16;;;;;;;5.25;0.30;;;10.20;58.60;;;;;;4974133;28;92758;-71
2023/03/27 10:43:44;;;;;;;4.63;0.57;;;10.40;59.60;;;;;;4968231;28;93139;-71
2023/03/27 10:46:22;;;;;;;5.90;0.50;;;10.60;58.50;;;;;;4960934;28;93196;-71
2023/03/27 10:49:00;;;;;;;4.90;0.40;;;10.70;57.90;;;;;;4958480;28;92855;-71
2023/03/27 10:51:50;;;;;;;8.27;0.32;;;10.70;57.80;;;;;;4961508;28;92917;-70
2023/03/27 10:54:24;;;;;;;7.47;1.25;;;10.80;56.90;;;;;;4963265;28;94533;-71
2023/03/27 10:57:15;;;;;;;6.80;0.80;;;10.90;57.00;;;;;;4969631;28;93804;-71
2023/03/27 10:59:52;;;;;;;5.38;0.40;;;11.00;56.50;;;;;;4965521;28;93592;-72
2023/03/27 11:02:30;;;;;;;6.50;0.30;;;10.70;57.30;;;;;;4964022;28;92868;-70
2023/03/27 11:05:03;;;;;;;4.53;0.40;;;10.70;55.70;;;;;;4967004;28;92654;-71
2023/03/27 11:07:41;;;;;;;5.63;0.38;;;10.70;56.80;;;;;;4990801;28;93295;-69
2023/03/27 11:10:16;;;;;;;4.53;0.32;;;11.00;56.60;;;;;;4987608;28;92468;-68
2023/03/27 11:12:53;;;;;;;5.85;0.47;;;11.20;56.80;;;;;;4967728;28;93925;-73
2023/03/27 11:15:24;;;;;;;4.85;0.30;;;11.50;56.10;;;;;;4981462;28;93700;-71
2023/03/27 11:18:16;;;;;;;4.45;0.30;;;11.40;55.70;;;;;;4966733;28;92864;-72
2023/03/27 11:21:11;;;;;;;5.38;0.22;;;11.50;55.50;;;;;;4961146;28;93815;-71
2023/03/27 11:23:48;;;;;;;7.03;0.50;;;11.60;55.40;;;;;;4958777;28;92544;-72
2023/03/27 11:26:15;;;;;;;;;;;11.80;55.70;;;;;;4968561;28;93294;-71
2023/03/27 11:28:51;;;;;;;5.88;0.50;;;11.80;54.50;;;;;;4970080;28;92548;-72
2023/03/27 11:31:45;;;;;;;6.20;0.40;;;11.80;55.30;;;;;;4976029;28;92499;-71
2023/03/27 11:34:29;;;;;;;5.70;0.40;;;11.90;54.60;;;;;;4984851;28;92702;-72
2023/03/27 11:37:11;;;;;;;4.03;0.50;;;11.70;56.00;;;;;;4973075;28;93254;-70
2023/03/27 11:39:52;;;;;;;5.75;0.30;;;11.60;56.80;;;;;;4973841;28;92446;-71
2023/03/27 11:42:23;;;;;;;8.88;0.47;;;11.50;55.60;;;;;;4973460;28;92528;-71
2023/03/27 11:44:49;;;;;;;6.60;0.45;;;11.70;54.40;;;;;;4975362;28;92192;-71
2023/03/27 11:47:43;;;;;;;5.22;0.40;;;11.90;55.20;;;;;;4973078;28;94064;-71
2023/03/27 11:50:30;;;;;;;6.53;0.38;;;11.90;55.70;;;;;;4978138;28;93260;-72
2023/03/27 11:53:16;;;;;;;8.57;0.32;;;12.10;55.80;;;;;;4975607;28;92342;-71
2023/03/27 11:56:09;;;;;;;6.78;0.50;;;12.40;54.10;;;;;;4975490;28;92406;-71
2023/03/27 11:58:58;;;;;;;3.85;0.40;;;12.20;53.70;;;;;;4973664;28;94013;-74
2023/03/27 12:01:51;;;;;;;5.82;0.60;;;12.20;53.80;;;;;;4978614;28;93063;-69
2023/03/27 12:04:38;;;;;;;3.53;0.30;;;11.80;53.40;;;;;;4967207;28;92529;-71
2023/03/27 12:07:42;;;;;;;5.03;0.30;;;11.50;55.80;;;;;;4974870;28;91708;-69
2023/03/27 12:10:16;;;;;;;4.55;0.35;;;11.40;54.10;;;;;;4973077;28;92307;-73
2023/03/27 12:12:55;;;;;;;5.05;0.65;;;11.50;53.80;;;;;;4981402;28;93485;-73
2023/03/27 12:15:59;;;;;;;6.32;0.40;;;11.60;54.30;;;;;;4974675;28;93100;-70
2023/03/27 12:18:24;;;;;;;6.28;0.47;;;11.60;53.60;;;;;;4977757;28;92550;-70
2023/03/27 12:21:22;;;;;;;5.82;0.40;;;11.70;54.00;;;;;;4976332;28;92945;-71
2023/03/27 12:23:48;;;;;;;4.65;0.30;;;11.70;52.60;;;;;;4993708;28;92932;-71
2023/03/27 12:26:23;;;;;;;7.25;0.45;;;11.70;53.60;;;;;;4994990;28;92524;-71
2023/03/27 12:29:15;;;;;;;7.60;0.43;;;12.00;54.30;;;;;;4984220;28;92568;-73
2023/03/27 12:32:11;;;;;;;5.43;0.40;;;12.00;52.70;;;;;;4977720;28;93963;-71
2023/03/27 12:35:03;;;;;;;6.30;0.57;;;12.20;52.00;;;;;;4988894;28;92033;-72
2023/03/27 12:37:55;;;;;;;3.67;0.30;;;12.40;51.20;;;;;;4988863;28;92079;-71
2023/03/27 12:40:31;;;;;;;6.00;0.50;;;12.50;51.20;;;;;;4979220;28;92545;-72
2023/03/27 12:43:19;;;;;;;3.75;0.30;;;12.70;49.00;;;;;;4977619;28;94154;-71
2023/03/27 12:46:23;;;;;;;4.20;0.20;;;12.60;50.00;;;;;;4977805;28;93262;-71
2023/03/27 12:48:54;;;;;;;5.25;0.40;;;12.80;51.30;;;;;;4975902;28;92911;-70
2023/03/27 12:51:52;;;;;;;4.95;0.30;;;12.70;50.60;;;;;;4987169;28;92116;-72
2023/03/27 12:54:27;;;;;;;3.72;0.30;;;12.40;48.40;;;;;;4990019;28;93078;-71
2023/03/27 12:57:16;;;;;;;5.50;0.40;;;12.20;48.90;;;;;;4973248;28;92576;-71
2023/03/27 12:59:52;;;;;;;4.45;0.28;;;11.90;50.20;;;;;;4974770;28;92203;-71
2023/03/27 13:02:33;;;;;;;3.10;0.20;;;11.90;50.10;;;;;;4978001;28;91664;-71
2023/03/27 13:05:18;;;;;;;5.35;0.35;;;11.70;53.00;;;;;;4976977;28;93655;-72
2023/03/27 13:08:06;;;;;;;7.80;0.40;;;11.70;51.90;;;;;;4979485;28;92486;-71
2023/03/27 13:11:11;;;;;;;4.15;0.28;;;11.60;49.90;;;;;;4983096;28;95142;-74
2023/03/27 13:13:59;;;;;;;2.42;0.60;;;11.30;49.90;;;;;;4974018;28;92511;-68
2023/03/27 13:17:01;;;;;;;3.50;0.22;;;11.20;51.00;;;;;;4985895;28;93250;-70
2023/03/27 13:19:46;;;;;;;3.60;0.22;;;11.10;52.40;;;;;;4965963;28;93329;-71
2023/03/27 13:22:17;;;;;;;2.53;0.20;;;11.20;53.00;;;;;;4994960;28;92580;-71
2023/03/27 13:25:01;;;;;;;6.30;0.32;;;11.40;53.80;;;;;;4997648;28;92212;-72
2023/03/27 13:27:49;;;;;;;5.03;0.20;;;11.40;52.60;;;;;;4997509;28;93186;-71